Shanghai Dawn — 3FMN2 — position and weather

sailwx.info

Track history (hours):
 
Tides and Currents Weather Stations Pressure Air Temp Water Temp Dewpoint Dewpoint Depression Visibility Wind Speed Wind Dir Waves Ship Positions

Shanghai Dawn

Last reported at 2016-Feb-10 09:33 UTC. Time now 2016-Feb-10 22:04 UTC.
Position N 01°14' E 104°00'.

Length 246 m; draft 8.5 m.

Type: Tanker. MMSI: 356075000.

Date/timePositionNaut miles runAvg speedWind from/ knotsBaromVisibWave heightAir tempDewpointWater temp
2016-Feb-10 09:33N 01°14' E 104°00'5 3.8
2016-Feb-10 08:09N 01°16' E 103°55'0 0.0
2016-Feb-10 07:33N 01°16' E 103°55'0 0.1
2016-Feb-10 06:27N 01°16' E 103°55'0 0.1
2016-Feb-10 05:15N 01°15' E 103°55'0 0.0
2016-Feb-10 04:27N 01°15' E 103°55'0 0.1
2016-Feb-10 03:27N 01°16' E 103°55'0 0.0
2016-Feb-10 02:33N 01°16' E 103°55'4 0.2
2016-Feb-09 07:31N 01°13' E 103°53'9 1.0
2016-Feb-08 22:32N 01°18' E 103°44'0 0.0
2016-Feb-08 21:32N 01°18' E 103°44'0 0.0
2016-Feb-08 20:32N 01°18' E 103°44'0 0.0
2016-Feb-08 19:32N 01°18' E 103°44'0 0.0
2016-Feb-08 18:32N 01°18' E 103°44'0 0.0
2016-Feb-08 17:32N 01°18' E 103°44'0 0.0
2016-Feb-08 16:32N 01°18' E 103°44'0 0.0
2016-Feb-08 15:32N 01°18' E 103°44'0 0.0
2016-Feb-08 09:20N 01°18' E 103°44'0 0.0
2016-Feb-08 08:32N 01°18' E 103°44'0 0.0
2016-Feb-07 22:28N 01°18' E 103°44'0 0.0
2016-Feb-07 18:10N 01°18' E 103°44'0 0.0
2016-Feb-07 16:28N 01°18' E 103°44'0 0.0
2016-Feb-07 11:32N 01°18' E 103°44'2 2.3
2016-Feb-07 10:33N 01°16' E 103°46'9 8.6
2016-Feb-07 09:33N 01°14' E 103°54'1 0.7
2016-Feb-07 08:30N 01°15' E 103°55'0 0.0
2016-Feb-07 07:15N 01°15' E 103°55'1 1.6
2016-Feb-07 06:33N 01°16' E 103°56'  
Track history (hours):
 
Tides and Currents Weather Stations Pressure Air Temp Water Temp Dewpoint Dewpoint Depression Visibility Wind Speed Wind Dir Waves Ship Positions

Shanghai Dawn

Last reported at 2016-Feb-10 09:33 UTC. Time now 2016-Feb-10 22:04 UTC.
Position N 01°14' E 104°00'.

Length 246 m; draft 8.5 m.

Type: Tanker. MMSI: 356075000.

Date/timePositionNaut miles runAvg speedWind from/ knotsBaromVisibWave heightAir tempDewpointWater temp
2016-Feb-10 09:33N 01°14' E 104°00'5 3.8
2016-Feb-10 08:09N 01°16' E 103°55'0 0.0
2016-Feb-10 07:33N 01°16' E 103°55'0 0.1
2016-Feb-10 06:27N 01°16' E 103°55'0 0.1
2016-Feb-10 05:15N 01°15' E 103°55'0 0.0
2016-Feb-10 04:27N 01°15' E 103°55'0 0.1
2016-Feb-10 03:27N 01°16' E 103°55'0 0.0
2016-Feb-10 02:33N 01°16' E 103°55'4 0.2
2016-Feb-09 07:31N 01°13' E 103°53'9 1.0
2016-Feb-08 22:32N 01°18' E 103°44'0 0.0
2016-Feb-08 21:32N 01°18' E 103°44'0 0.0
2016-Feb-08 20:32N 01°18' E 103°44'0 0.0
2016-Feb-08 19:32N 01°18' E 103°44'0 0.0
2016-Feb-08 18:32N 01°18' E 103°44'0 0.0
2016-Feb-08 17:32N 01°18' E 103°44'0 0.0
2016-Feb-08 16:32N 01°18' E 103°44'0 0.0
2016-Feb-08 15:32N 01°18' E 103°44'0 0.0
2016-Feb-08 09:20N 01°18' E 103°44'0 0.0
2016-Feb-08 08:32N 01°18' E 103°44'0 0.0
2016-Feb-07 22:28N 01°18' E 103°44'0 0.0
2016-Feb-07 18:10N 01°18' E 103°44'0 0.0
2016-Feb-07 16:28N 01°18' E 103°44'0 0.0
2016-Feb-07 11:32N 01°18' E 103°44'2 2.3
2016-Feb-07 10:33N 01°16' E 103°46'9 8.6
2016-Feb-07 09:33N 01°14' E 103°54'1 0.7
2016-Feb-07 08:30N 01°15' E 103°55'0 0.0
2016-Feb-07 07:15N 01°15' E 103°55'1 1.6
2016-Feb-07 06:33N 01°16' E 103°56'  

Dump ship's entire track history